Time;durP1;ratioP1;P1;durP2;ratioP2;P2;SDS_P1;SDS_P2;PMS_P1;PMS_P2;Temp;Humidity;BMP_temperature;BMP_pressure;BME280_temperature;BME280_humidity;BME280_pressure;Samples;Min_cycle;Max_cycle;Signal;HPM_P1;HPM_P2
2023/11/22 00:00:31;;;;;;;5.50;2.93;;;;;;;;;;5125447;28;20749;-80
2023/11/22 00:02:59;;;;;;;5.50;3.50;;;;;;;;;;5124077;28;20866;-79
2023/11/22 00:05:26;;;;;;;5.80;3.27;;;;;;;;;;5124899;28;20527;-79
2023/11/22 00:07:54;;;;;;;5.27;2.93;;;;;;;;;;5124701;28;20822;-80
2023/11/22 00:10:24;;;;;;;5.80;2.73;;;;;;;;;;5127383;28;20447;-77
2023/11/22 00:12:53;;;;;;;5.10;3.40;;;;;;;;;;5123465;28;20459;-78
2023/11/22 00:15:21;;;;;;;5.70;3.60;;;;;;;;;;5145424;28;20446;-79
2023/11/22 00:17:50;;;;;;;4.73;2.93;;;;;;;;;;5144636;27;20478;-78
2023/11/22 00:20:18;;;;;;;5.40;2.93;;;;;;;;;;5147135;28;20454;-80
2023/11/22 00:22:47;;;;;;;6.37;3.03;;;;;;;;;;5144769;28;20454;-79
2023/11/22 00:25:14;;;;;;;4.80;3.00;;;;;;;;;;5147046;28;20454;-79
2023/11/22 00:27:42;;;;;;;7.80;3.60;;;;;;;;;;5145893;28;20442;-80
2023/11/22 00:30:10;;;;;;;6.20;3.00;;;;;;;;;;5145123;28;20442;-80
2023/11/22 00:32:40;;;;;;;6.87;3.57;;;;;;;;;;5146072;28;20438;-80
2023/11/22 00:35:09;;;;;;;7.20;3.87;;;;;;;;;;5146043;28;20457;-79
2023/11/22 00:37:37;;;;;;;17.27;3.40;;;;;;;;;;5147354;28;20485;-78
2023/11/22 00:40:10;;;;;;;5.97;3.97;;;;;;;;;;5145897;28;20513;-79
2023/11/22 00:42:40;;;;;;;5.37;3.13;;;;;;;;;;5145303;28;20434;-79
2023/11/22 00:45:08;;;;;;;5.20;3.07;;;;;;;;;;5146850;28;20442;-80
2023/11/22 00:47:35;;;;;;;8.37;3.83;;;;;;;;;;5143240;28;20442;-79
2023/11/22 00:50:07;;;;;;;8.50;3.87;;;;;;;;;;5144697;28;20774;-79
2023/11/22 00:52:36;;;;;;;7.07;3.70;;;;;;;;;;5144982;28;20450;-79
2023/11/22 00:55:05;;;;;;;6.00;3.70;;;;;;;;;;5143082;28;20498;-79
2023/11/22 00:57:32;;;;;;;6.33;3.23;;;;;;;;;;5145124;28;20492;-79
2023/11/22 01:00:00;;;;;;;6.70;4.10;;;;;;;;;;5145955;28;20446;-78
2023/11/22 01:02:27;;;;;;;5.53;3.77;;;;;;;;;;5144734;28;20465;-79
2023/11/22 01:04:54;;;;;;;8.97;3.90;;;;;;;;;;5144499;28;20454;-79
2023/11/22 01:07:22;;;;;;;5.70;3.33;;;;;;;;;;5144521;27;20722;-80
2023/11/22 01:09:51;;;;;;;6.40;3.30;;;;;;;;;;5147665;27;20489;-80
2023/11/22 01:12:19;;;;;;;6.50;3.90;;;;;;;;;;5149722;27;20540;-80
2023/11/22 01:14:46;;;;;;;5.50;3.10;;;;;;;;;;5148575;27;20512;-79
2023/11/22 01:17:14;;;;;;;5.97;3.30;;;;;;;;;;5148347;27;20956;-79
2023/11/22 01:19:41;;;;;;;6.43;3.23;;;;;;;;;;5149170;27;20498;-79
2023/11/22 01:22:12;;;;;;;5.50;3.60;;;;;;;;;;5149937;27;20457;-79
2023/11/22 01:24:39;;;;;;;8.23;4.37;;;;;;;;;;5147045;27;20792;-79
2023/11/22 01:27:14;;;;;;;10.43;3.33;;;;;;;;;;5147401;27;20782;-80
2023/11/22 01:29:41;;;;;;;6.00;3.13;;;;;;;;;;5147421;27;20457;-79
2023/11/22 01:32:09;;;;;;;7.70;3.00;;;;;;;;;;5146998;27;20489;-80
2023/11/22 01:34:36;;;;;;;7.70;3.10;;;;;;;;;;5148958;27;20462;-78
2023/11/22 01:37:12;;;;;;;7.43;3.80;;;;;;;;;;5152147;27;20519;-78
2023/11/22 01:39:41;;;;;;;8.03;4.00;;;;;;;;;;5148368;27;20479;-78
2023/11/22 01:42:09;;;;;;;6.57;4.13;;;;;;;;;;5150919;27;20577;-78
2023/11/22 01:44:38;;;;;;;7.30;3.30;;;;;;;;;;5149200;27;20485;-78
2023/11/22 01:47:11;;;;;;;6.07;3.50;;;;;;;;;;5147456;27;20441;-79
2023/11/22 01:49:38;;;;;;;6.53;3.80;;;;;;;;;;5147345;27;20442;-79
2023/11/22 01:52:06;;;;;;;7.13;3.53;;;;;;;;;;5147437;27;20972;-79
2023/11/22 01:54:34;;;;;;;5.67;3.20;;;;;;;;;;5147213;27;20448;-79
2023/11/22 01:57:01;;;;;;;5.77;3.67;;;;;;;;;;5146741;27;20482;-79
2023/11/22 01:59:29;;;;;;;5.27;2.90;;;;;;;;;;5147678;27;20450;-78
2023/11/22 02:01:58;;;;;;;7.50;2.87;;;;;;;;;;5149651;27;20450;-79
2023/11/22 02:04:26;;;;;;;5.10;2.50;;;;;;;;;;5149875;27;20725;-80
2023/11/22 02:06:54;;;;;;;5.67;3.37;;;;;;;;;;5149264;27;20434;-79
2023/11/22 02:09:22;;;;;;;7.00;3.30;;;;;;;;;;5130834;27;20450;-80
2023/11/22 02:11:50;;;;;;;4.67;3.10;;;;;;;;;;5148232;27;20886;-80
2023/11/22 02:14:17;;;;;;;7.37;3.80;;;;;;;;;;5147102;27;20477;-79
2023/11/22 02:16:45;;;;;;;6.03;3.00;;;;;;;;;;5148484;27;20493;-79
2023/11/22 02:19:16;;;;;;;6.73;3.60;;;;;;;;;;5144013;27;20450;-79
2023/11/22 02:21:43;;;;;;;5.60;2.90;;;;;;;;;;5143758;27;20426;-79
2023/11/22 02:24:12;;;;;;;5.07;2.93;;;;;;;;;;5143874;27;20738;-80
2023/11/22 02:26:45;;;;;;;9.00;3.10;;;;;;;;;;5144138;27;20534;-80
2023/11/22 02:29:13;;;;;;;5.90;3.10;;;;;;;;;;5147207;27;20434;-79
2023/11/22 02:31:41;;;;;;;6.77;3.07;;;;;;;;;;5146839;27;20485;-78
2023/11/22 02:34:08;;;;;;;5.47;3.17;;;;;;;;;;5147001;27;20522;-79
2023/11/22 02:36:36;;;;;;;6.30;3.60;;;;;;;;;;5144669;27;20469;-78
2023/11/22 02:39:03;;;;;;;5.47;3.10;;;;;;;;;;5148948;27;20433;-79
2023/11/22 02:41:33;;;;;;;5.40;3.20;;;;;;;;;;5146158;27;20452;-79
2023/11/22 02:44:06;;;;;;;7.60;4.27;;;;;;;;;;5146902;27;20465;-80
2023/11/22 02:46:34;;;;;;;11.10;4.10;;;;;;;;;;5146764;27;20453;-79
2023/11/22 02:49:01;;;;;;;9.00;3.63;;;;;;;;;;5147659;27;20922;-78
2023/11/22 02:51:29;;;;;;;6.50;3.17;;;;;;;;;;5147966;27;20511;-78
2023/11/22 02:53:56;;;;;;;7.20;3.80;;;;;;;;;;5148938;27;20454;-79
2023/11/22 02:56:25;;;;;;;7.03;3.50;;;;;;;;;;5147867;27;20522;-80
2023/11/22 02:58:54;;;;;;;6.00;3.30;;;;;;;;;;5150036;27;20500;-79
2023/11/22 03:01:21;;;;;;;6.30;3.70;;;;;;;;;;5146093;27;20450;-79
2023/11/22 03:03:49;;;;;;;6.50;3.10;;;;;;;;;;5147793;27;20437;-80
2023/11/22 03:06:16;;;;;;;5.37;3.00;;;;;;;;;;5144666;27;20548;-79
2023/11/22 03:08:44;;;;;;;7.73;4.27;;;;;;;;;;5144937;27;20729;-79
2023/11/22 03:11:11;;;;;;;5.77;2.93;;;;;;;;;;5145416;27;20450;-78
2023/11/22 03:13:39;;;;;;;6.97;3.53;;;;;;;;;;5142051;27;20577;-79
2023/11/22 03:16:08;;;;;;;6.97;3.70;;;;;;;;;;5145702;27;20464;-80
2023/11/22 03:18:39;;;;;;;6.97;3.40;;;;;;;;;;5143911;27;20477;-79
2023/11/22 03:21:07;;;;;;;5.23;3.23;;;;;;;;;;5143956;27;20884;-79
2023/11/22 03:23:35;;;;;;;6.50;3.47;;;;;;;;;;5146516;27;20453;-79
2023/11/22 03:26:03;;;;;;;5.80;2.87;;;;;;;;;;5146238;27;20636;-80
2023/11/22 03:28:31;;;;;;;5.50;3.03;;;;;;;;;;5142733;27;20476;-80
2023/11/22 03:30:59;;;;;;;8.60;3.43;;;;;;;;;;5143758;27;20461;-80
2023/11/22 03:33:28;;;;;;;7.70;2.97;;;;;;;;;;5144793;27;20557;-80
2023/11/22 03:35:55;;;;;;;7.27;3.90;;;;;;;;;;5143346;27;20449;-80
2023/11/22 03:38:23;;;;;;;5.63;3.37;;;;;;;;;;5144285;27;20521;-79
2023/11/22 03:40:51;;;;;;;7.70;3.13;;;;;;;;;;5143483;27;20542;-79
2023/11/22 03:43:19;;;;;;;6.90;4.07;;;;;;;;;;5142834;27;20457;-80
2023/11/22 03:45:47;;;;;;;5.80;3.33;;;;;;;;;;5141975;27;20485;-80
2023/11/22 03:48:14;;;;;;;6.63;3.40;;;;;;;;;;5143646;27;20441;-79
2023/11/22 03:50:43;;;;;;;5.50;3.30;;;;;;;;;;5142506;27;20564;-79
2023/11/22 03:53:10;;;;;;;6.20;3.53;;;;;;;;;;5142793;27;20549;-79
2023/11/22 03:55:38;;;;;;;4.60;3.03;;;;;;;;;;5143840;27;20453;-79
2023/11/22 03:58:05;;;;;;;7.00;3.30;;;;;;;;;;5145099;27;20517;-80
2023/11/22 04:00:33;;;;;;;6.67;3.23;;;;;;;;;;5145581;27;20452;-80
2023/11/22 04:03:01;;;;;;;6.70;3.37;;;;;;;;;;5144779;27;20517;-79
2023/11/22 04:05:29;;;;;;;7.00;3.80;;;;;;;;;;5144808;27;20565;-79
2023/11/22 04:07:58;;;;;;;6.97;3.60;;;;;;;;;;5145773;27;20844;-78
2023/11/22 04:10:25;;;;;;;11.80;3.80;;;;;;;;;;5142143;27;21039;-79
2023/11/22 04:12:53;;;;;;;6.77;3.90;;;;;;;;;;5144547;27;20438;-79
2023/11/22 04:15:21;;;;;;;6.37;3.50;;;;;;;;;;5144054;27;20466;-79
2023/11/22 04:17:48;;;;;;;7.30;3.50;;;;;;;;;;5145684;27;20511;-80
2023/11/22 04:20:17;;;;;;;6.60;3.93;;;;;;;;;;5144489;27;20446;-80
2023/11/22 04:22:46;;;;;;;6.77;3.00;;;;;;;;;;5144780;27;20448;-79
2023/11/22 04:25:15;;;;;;;6.87;3.37;;;;;;;;;;5145131;28;20511;-79
2023/11/22 04:27:42;;;;;;;8.17;4.07;;;;;;;;;;5149918;28;20450;-80
2023/11/22 04:30:13;;;;;;;8.30;4.17;;;;;;;;;;5147798;28;20477;-80
2023/11/22 04:32:42;;;;;;;7.00;3.63;;;;;;;;;;5145163;28;20508;-79
2023/11/22 04:35:10;;;;;;;7.30;3.70;;;;;;;;;;5146678;28;20457;-79
2023/11/22 04:37:38;;;;;;;6.50;3.43;;;;;;;;;;5144250;28;20473;-78
2023/11/22 04:40:08;;;;;;;7.40;3.90;;;;;;;;;;5145470;27;20470;-79
2023/11/22 04:42:37;;;;;;;5.97;3.73;;;;;;;;;;5143534;27;20445;-80
2023/11/22 04:45:05;;;;;;;4.87;3.00;;;;;;;;;;5145957;27;20594;-78
2023/11/22 04:47:33;;;;;;;8.63;3.73;;;;;;;;;;5147733;27;20521;-80
2023/11/22 04:50:00;;;;;;;5.07;2.80;;;;;;;;;;5146891;27;20457;-78
2023/11/22 04:52:28;;;;;;;6.03;3.33;;;;;;;;;;5147410;27;20857;-77
2023/11/22 04:54:55;;;;;;;8.97;3.17;;;;;;;;;;5149205;27;20518;-79
2023/11/22 04:57:22;;;;;;;7.60;3.70;;;;;;;;;;5148452;27;20841;-79
2023/11/22 04:59:51;;;;;;;6.80;3.27;;;;;;;;;;5147934;27;20450;-79
2023/11/22 05:02:20;;;;;;;10.10;4.43;;;;;;;;;;5143093;27;20454;-79
2023/11/22 05:04:49;;;;;;;7.47;4.70;;;;;;;;;;5150573;27;20453;-79
2023/11/22 05:07:19;;;;;;;9.13;4.73;;;;;;;;;;5146148;27;20458;-80
2023/11/22 05:09:47;;;;;;;18.03;8.90;;;;;;;;;;5146247;27;20440;-80
2023/11/22 05:12:15;;;;;;;9.13;5.03;;;;;;;;;;5142301;27;20457;-78
2023/11/22 05:14:43;;;;;;;8.13;4.13;;;;;;;;;;5145962;27;20505;-80
2023/11/22 05:17:12;;;;;;;8.10;4.43;;;;;;;;;;5145399;27;20729;-79
2023/11/22 05:19:40;;;;;;;10.47;5.13;;;;;;;;;;5144024;27;20507;-80
2023/11/22 05:22:11;;;;;;;9.13;6.27;;;;;;;;;;5148269;27;20544;-80
2023/11/22 05:24:41;;;;;;;11.20;5.23;;;;;;;;;;5144929;27;20461;-79
2023/11/22 05:27:11;;;;;;;8.03;4.50;;;;;;;;;;5151441;27;20449;-78
2023/11/22 05:29:39;;;;;;;13.73;6.47;;;;;;;;;;5144876;27;20540;-79
2023/11/22 05:32:07;;;;;;;10.20;6.10;;;;;;;;;;5148943;27;20449;-78
2023/11/22 05:34:36;;;;;;;7.40;4.80;;;;;;;;;;5150553;27;20430;-78
2023/11/22 05:37:11;;;;;;;9.40;6.23;;;;;;;;;;5148406;27;20489;-80
2023/11/22 05:39:38;;;;;;;8.10;5.13;;;;;;;;;;5149407;27;20488;-79
2023/11/22 05:42:06;;;;;;;6.83;3.83;;;;;;;;;;5146936;27;20723;-79
2023/11/22 05:44:34;;;;;;;8.33;4.40;;;;;;;;;;5146725;27;20544;-80
2023/11/22 05:47:02;;;;;;;11.30;5.23;;;;;;;;;;5144554;27;20467;-80
2023/11/22 05:49:29;;;;;;;5.70;3.53;;;;;;;;;;5148244;27;20434;-80
2023/11/22 05:51:58;;;;;;;6.33;4.30;;;;;;;;;;5143362;27;20434;-79
2023/11/22 05:54:26;;;;;;;8.77;4.70;;;;;;;;;;5144273;27;20945;-79
2023/11/22 05:56:54;;;;;;;9.87;4.90;;;;;;;;;;5142703;27;20442;-79
2023/11/22 05:59:21;;;;;;;8.03;4.30;;;;;;;;;;5146238;27;20504;-78
2023/11/22 06:01:49;;;;;;;5.40;3.50;;;;;;;;;;5146067;27;20446;-80
2023/11/22 06:04:17;;;;;;;26.07;14.03;;;;;;;;;;5144199;27;20450;-78
2023/11/22 06:06:44;;;;;;;7.93;4.30;;;;;;;;;;5140481;27;20903;-78
2023/11/22 06:09:14;;;;;;;10.67;5.07;;;;;;;;;;5142547;27;20464;-82
2023/11/22 06:11:44;;;;;;;6.17;4.23;;;;;;;;;;5138290;27;20473;-80
2023/11/22 06:14:12;;;;;;;8.97;6.10;;;;;;;;;;5141153;27;20901;-79
2023/11/22 06:16:39;;;;;;;6.50;3.77;;;;;;;;;;5138878;27;20437;-80
2023/11/22 06:19:07;;;;;;;10.03;4.67;;;;;;;;;;5142872;27;20482;-78
2023/11/22 06:21:36;;;;;;;7.40;4.40;;;;;;;;;;5141966;27;20441;-79
2023/11/22 06:24:05;;;;;;;7.30;4.93;;;;;;;;;;5143306;27;20522;-79
2023/11/22 06:26:34;;;;;;;9.43;5.60;;;;;;;;;;5142716;27;20458;-79
2023/11/22 06:29:02;;;;;;;9.30;6.23;;;;;;;;;;5143390;27;20441;-78
2023/11/22 06:31:30;;;;;;;8.33;5.10;;;;;;;;;;5141791;27;20438;-79
2023/11/22 06:33:59;;;;;;;7.23;4.60;;;;;;;;;;5135959;27;20543;-79
2023/11/22 06:36:27;;;;;;;11.27;4.77;;;;;;;;;;5138256;27;20741;-79
2023/11/22 06:38:55;;;;;;;7.13;4.90;;;;;;;;;;5136160;27;20477;-79
2023/11/22 06:41:23;;;;;;;8.43;4.40;;;;;;;;;;5137356;27;20530;-79
2023/11/22 06:43:52;;;;;;;8.80;4.77;;;;;;;;;;5135844;27;20441;-79
2023/11/22 06:46:20;;;;;;;7.80;4.67;;;;;;;;;;5135450;27;20579;-79
2023/11/22 06:48:49;;;;;;;9.53;5.20;;;;;;;;;;5135594;27;20450;-79
2023/11/22 06:51:18;;;;;;;8.63;4.97;;;;;;;;;;5137538;27;20493;-79
2023/11/22 06:53:45;;;;;;;8.67;5.73;;;;;;;;;;5136052;27;20465;-78
2023/11/22 06:56:14;;;;;;;8.80;5.00;;;;;;;;;;5141212;27;20458;-79
2023/11/22 06:58:41;;;;;;;10.90;6.70;;;;;;;;;;5139918;27;20663;-79
2023/11/22 07:01:11;;;;;;;9.20;5.40;;;;;;;;;;5144287;27;20772;-79
2023/11/22 07:03:38;;;;;;;11.47;6.13;;;;;;;;;;5142014;27;20469;-78
2023/11/22 07:06:06;;;;;;;13.53;5.67;;;;;;;;;;5139476;27;20714;-79
2023/11/22 07:08:36;;;;;;;8.47;5.13;;;;;;;;;;5141647;27;20605;-80
2023/11/22 07:11:04;;;;;;;8.97;4.80;;;;;;;;;;5139225;27;20444;-79
2023/11/22 07:13:31;;;;;;;10.73;5.27;;;;;;;;;;5143256;27;20896;-77
2023/11/22 07:15:57;;;;;;;11.53;6.60;;;;;;;;;;5143815;27;20536;-77
2023/11/22 07:18:27;;;;;;;7.93;5.33;;;;;;;;;;5138065;27;20469;-79
2023/11/22 07:20:55;;;;;;;11.10;7.47;;;;;;;;;;5133984;27;20841;-77
2023/11/22 07:23:27;;;;;;;10.10;5.50;;;;;;;;;;5136964;27;20481;-79
2023/11/22 07:25:55;;;;;;;8.93;5.33;;;;;;;;;;5138165;27;20530;-78
2023/11/22 07:28:22;;;;;;;7.70;4.40;;;;;;;;;;5137221;27;20489;-79
2023/11/22 07:30:51;;;;;;;9.20;4.20;;;;;;;;;;5135550;27;20481;-78
2023/11/22 07:33:20;;;;;;;8.40;4.97;;;;;;;;;;5137894;27;20456;-79
2023/11/22 07:35:51;;;;;;;7.97;3.90;;;;;;;;;;5135106;27;20453;-79
2023/11/22 07:38:19;;;;;;;6.83;4.07;;;;;;;;;;5138294;27;20562;-80
2023/11/22 07:40:48;;;;;;;8.90;5.20;;;;;;;;;;5136252;27;20914;-79
2023/11/22 07:43:15;;;;;;;8.37;5.00;;;;;;;;;;5136352;27;20460;-79
2023/11/22 07:45:43;;;;;;;7.27;5.00;;;;;;;;;;5136910;27;20721;-79
2023/11/22 07:48:11;;;;;;;10.30;5.33;;;;;;;;;;5138800;27;20461;-79
2023/11/22 07:50:39;;;;;;;8.67;5.17;;;;;;;;;;5139215;27;20457;-78
2023/11/22 07:53:08;;;;;;;8.53;5.07;;;;;;;;;;5125443;27;20498;-77
2023/11/22 07:55:37;;;;;;;14.80;5.20;;;;;;;;;;5117167;27;20683;-78
2023/11/22 07:58:06;;;;;;;7.50;4.83;;;;;;;;;;5115758;28;20447;-78
2023/11/22 08:00:34;;;;;;;8.60;5.40;;;;;;;;;;5118316;28;20462;-77
2023/11/22 08:03:02;;;;;;;9.00;5.90;;;;;;;;;;5117608;28;20485;-78
2023/11/22 08:05:34;;;;;;;10.90;6.57;;;;;;;;;;5117937;28;20547;-77
2023/11/22 08:08:06;;;;;;;9.40;5.10;;;;;;;;;;5118359;27;20467;-78
2023/11/22 08:10:35;;;;;;;9.23;5.03;;;;;;;;;;5121144;27;20469;-81
2023/11/22 08:13:03;;;;;;;8.73;5.90;;;;;;;;;;5126650;27;20455;-78
2023/11/22 08:15:32;;;;;;;9.40;5.80;;;;;;;;;;5129705;27;20847;-77
2023/11/22 08:18:00;;;;;;;12.63;6.43;;;;;;;;;;5141006;27;20485;-77
2023/11/22 08:20:28;;;;;;;9.60;5.53;;;;;;;;;;5125798;27;21246;-76
2023/11/22 08:22:55;;;;;;;9.27;6.10;;;;;;;;;;5120049;28;21097;-76
2023/11/22 08:25:24;;;;;;;8.97;5.40;;;;;;;;;;5129771;28;20450;-77
2023/11/22 08:27:56;;;;;;;10.83;6.07;;;;;;;;;;5132673;28;20538;-77
2023/11/22 08:30:24;;;;;;;8.07;5.93;;;;;;;;;;5124516;28;20466;-77
2023/11/22 08:32:53;;;;;;;12.27;6.03;;;;;;;;;;5131733;28;20477;-79
2023/11/22 08:35:23;;;;;;;8.87;5.73;;;;;;;;;;5128530;28;20455;-77
2023/11/22 08:37:51;;;;;;;11.73;6.30;;;;;;;;;;5121530;28;20488;-77
2023/11/22 08:40:20;;;;;;;10.40;5.93;;;;;;;;;;5126139;28;20827;-78
2023/11/22 08:42:47;;;;;;;9.47;5.90;;;;;;;;;;5124146;28;20468;-77
2023/11/22 08:45:17;;;;;;;9.47;5.93;;;;;;;;;;5119137;28;20586;-78
2023/11/22 08:47:45;;;;;;;12.00;5.50;;;;;;;;;;5122136;28;20469;-78
2023/11/22 08:50:15;;;;;;;10.77;6.43;;;;;;;;;;5120185;28;20450;-79
2023/11/22 08:52:44;;;;;;;11.53;6.60;;;;;;;;;;5119462;28;20446;-79
2023/11/22 08:55:12;;;;;;;9.70;7.03;;;;;;;;;;5121663;28;20454;-79
2023/11/22 08:57:40;;;;;;;11.17;6.23;;;;;;;;;;5123078;28;20449;-77
2023/11/22 09:00:09;;;;;;;11.70;6.40;;;;;;;;;;5119154;28;20487;-78
2023/11/22 09:02:41;;;;;;;11.10;6.87;;;;;;;;;;5105694;28;20443;-77
2023/11/22 09:05:12;;;;;;;10.03;6.30;;;;;;;;;;5125219;28;20489;-77
2023/11/22 09:07:58;;;;;;;12.23;7.27;;;;;;;;;;5133868;28;20468;-78
2023/11/22 09:13:39;;;;;;;13.70;6.20;;;;;;;;;;5098949;28;20434;-79
2023/11/22 09:16:08;;;;;;;9.80;6.17;;;;;;;;;;5142994;28;20514;-79
2023/11/22 09:18:38;;;;;;;8.50;5.40;;;;;;;;;;5133695;28;20811;-78
2023/11/22 09:27:46;;;;;;;9.13;5.67;;;;;;;;;;5093661;28;20484;-79
2023/11/22 09:33:03;;;;;;;10.37;6.70;;;;;;;;;;5104533;28;20579;-78
2023/11/22 09:35:33;;;;;;;11.17;6.10;;;;;;;;;;5102667;28;20457;-77
2023/11/22 09:38:04;;;;;;;8.13;5.47;;;;;;;;;;5103859;28;20565;-77
2023/11/22 09:40:36;;;;;;;10.13;5.47;;;;;;;;;;5109916;28;20479;-78
2023/11/22 09:43:04;;;;;;;10.80;5.93;;;;;;;;;;5123946;28;20500;-78
2023/11/22 09:45:35;;;;;;;16.73;10.40;;;;;;;;;;5101592;28;20472;-79
2023/11/22 09:48:18;;;;;;;8.50;5.40;;;;;;;;;;5100036;28;20464;-78
2023/11/22 09:50:51;;;;;;;9.07;6.43;;;;;;;;;;5105021;28;20547;-78
2023/11/22 09:53:25;;;;;;;9.77;5.73;;;;;;;;;;5103954;28;21108;-77
2023/11/22 09:55:53;;;;;;;10.03;6.37;;;;;;;;;;5102552;28;20463;-78
2023/11/22 09:58:36;;;;;;;11.33;5.77;;;;;;;;;;5105023;28;20900;-78
2023/11/22 10:01:13;;;;;;;8.10;4.97;;;;;;;;;;5099033;28;20613;-77
2023/11/22 10:03:45;;;;;;;8.00;4.80;;;;;;;;;;5096807;28;21082;-78
2023/11/22 10:06:15;;;;;;;8.20;5.30;;;;;;;;;;5079738;28;20504;-78
2023/11/22 10:08:43;;;;;;;11.73;6.10;;;;;;;;;;5083576;28;20459;-77
2023/11/22 10:11:11;;;;;;;6.83;4.10;;;;;;;;;;5082044;28;20461;-77
2023/11/22 10:13:39;;;;;;;7.20;4.33;;;;;;;;;;5094584;28;20458;-77
2023/11/22 10:16:15;;;;;;;6.93;4.30;;;;;;;;;;5103852;28;20681;-78
2023/11/22 10:18:44;;;;;;;7.53;3.90;;;;;;;;;;5100453;28;20515;-79
2023/11/22 10:21:22;;;;;;;9.37;4.53;;;;;;;;;;5096230;28;20970;-78
2023/11/22 10:23:51;;;;;;;7.63;4.10;;;;;;;;;;5100689;28;21127;-77
2023/11/22 10:26:19;;;;;;;9.93;4.60;;;;;;;;;;5100248;28;20491;-79
2023/11/22 10:28:47;;;;;;;11.33;5.40;;;;;;;;;;5106290;28;20464;-78
2023/11/22 10:31:15;;;;;;;16.80;6.90;;;;;;;;;;5104951;28;20482;-77
2023/11/22 10:33:43;;;;;;;10.03;5.80;;;;;;;;;;5120968;28;20469;-78
2023/11/22 10:36:12;;;;;;;8.27;5.43;;;;;;;;;;5118465;28;20444;-79
2023/11/22 10:38:46;;;;;;;11.07;5.40;;;;;;;;;;5117570;28;20544;-78
2023/11/22 10:41:17;;;;;;;9.40;4.00;;;;;;;;;;5113589;28;20597;-77
2023/11/22 10:43:46;;;;;;;7.80;4.70;;;;;;;;;;5113804;28;20483;-78
2023/11/22 10:46:14;;;;;;;6.73;4.20;;;;;;;;;;5107135;27;20459;-78
2023/11/22 10:48:45;;;;;;;6.50;3.90;;;;;;;;;;5123688;27;20855;-80
2023/11/22 10:51:16;;;;;;;8.23;5.00;;;;;;;;;;5103727;28;20544;-78
2023/11/22 10:53:49;;;;;;;7.27;5.10;;;;;;;;;;5102585;27;20526;-79
2023/11/22 10:56:19;;;;;;;6.73;4.03;;;;;;;;;;5121935;28;20461;-79
2023/11/22 10:58:49;;;;;;;7.90;4.30;;;;;;;;;;5106408;28;20493;-77
2023/11/22 11:01:17;;;;;;;7.97;5.23;;;;;;;;;;5112027;28;20482;-78
2023/11/22 11:03:58;;;;;;;9.63;5.37;;;;;;;;;;5123127;27;20442;-78
2023/11/22 11:06:31;;;;;;;10.60;6.07;;;;;;;;;;5116188;28;20529;-79
2023/11/22 11:09:15;;;;;;;9.83;5.20;;;;;;;;;;5108912;28;20455;-77
2023/11/22 11:11:43;;;;;;;8.37;4.60;;;;;;;;;;5112465;28;20455;-79
2023/11/22 11:14:17;;;;;;;8.60;4.40;;;;;;;;;;5122568;27;20513;-78
2023/11/22 11:16:49;;;;;;;7.50;4.30;;;;;;;;;;5102787;28;20882;-79
2023/11/22 11:19:18;;;;;;;8.33;4.07;;;;;;;;;;5102945;28;20443;-78
2023/11/22 11:21:47;;;;;;;15.47;7.47;;;;;;;;;;5099795;28;20448;-81
2023/11/22 11:24:16;;;;;;;6.20;3.90;;;;;;;;;;5111948;27;20720;-77
2023/11/22 11:26:54;;;;;;;6.07;3.20;;;;;;;;;;5122079;27;20438;-78
2023/11/22 11:29:42;;;;;;;7.87;4.10;;;;;;;;;;5125701;27;20453;-79
2023/11/22 11:32:13;;;;;;;11.63;5.73;;;;;;;;;;5106556;28;20487;-77
2023/11/22 11:34:49;;;;;;;5.47;3.33;;;;;;;;;;5096356;28;20565;-78
2023/11/22 11:37:21;;;;;;;8.50;4.77;;;;;;;;;;5098243;28;20451;-78
2023/11/22 11:40:24;;;;;;;7.57;3.00;;;;;;;;;;5098605;28;20471;-77
2023/11/22 11:42:53;;;;;;;5.90;3.63;;;;;;;;;;5096484;28;20453;-78
2023/11/22 11:45:21;;;;;;;8.80;5.40;;;;;;;;;;5094451;28;20479;-79
2023/11/22 11:47:49;;;;;;;17.00;7.70;;;;;;;;;;5100152;28;20451;-77
2023/11/22 11:50:18;;;;;;;10.10;5.77;;;;;;;;;;5101760;28;20428;-78
2023/11/22 11:52:48;;;;;;;11.13;5.23;;;;;;;;;;5101121;28;20747;-78
2023/11/22 11:55:21;;;;;;;8.90;6.03;;;;;;;;;;5094279;28;20455;-77
2023/11/22 11:57:52;;;;;;;8.40;4.13;;;;;;;;;;5100669;28;20478;-78
2023/11/22 12:00:31;;;;;;;13.60;5.70;;;;;;;;;;5096161;28;20472;-79
2023/11/22 12:03:04;;;;;;;10.67;5.30;;;;;;;;;;5096534;28;20463;-78
2023/11/22 12:05:36;;;;;;;9.77;3.90;;;;;;;;;;5096649;28;20443;-78
2023/11/22 12:08:04;;;;;;;16.40;7.07;;;;;;;;;;5096260;28;20901;-77
2023/11/22 12:10:38;;;;;;;8.67;4.57;;;;;;;;;;5094754;28;20491;-80
2023/11/22 12:13:07;;;;;;;6.63;3.40;;;;;;;;;;5089976;28;20455;-78
2023/11/22 12:15:35;;;;;;;11.93;5.53;;;;;;;;;;5099792;28;20511;-78
2023/11/22 12:18:03;;;;;;;6.93;3.83;;;;;;;;;;5101182;28;20443;-79
2023/11/22 12:20:32;;;;;;;5.50;3.00;;;;;;;;;;5099229;28;20533;-79
2023/11/22 12:23:00;;;;;;;8.03;3.90;;;;;;;;;;5102715;28;20451;-78
2023/11/22 12:25:33;;;;;;;6.30;4.30;;;;;;;;;;5101747;28;21116;-78
2023/11/22 12:28:05;;;;;;;9.13;4.33;;;;;;;;;;5102292;28;20486;-78
2023/11/22 12:30:33;;;;;;;7.13;3.10;;;;;;;;;;5102914;28;20858;-78
2023/11/22 12:33:05;;;;;;;7.50;4.70;;;;;;;;;;5101057;28;20496;-78
2023/11/22 12:35:36;;;;;;;6.23;3.30;;;;;;;;;;5092216;28;20488;-78
2023/11/22 12:38:05;;;;;;;5.60;2.50;;;;;;;;;;5088753;28;20471;-77
2023/11/22 12:40:33;;;;;;;8.27;4.63;;;;;;;;;;5090247;28;20913;-78
2023/11/22 12:43:01;;;;;;;9.13;3.80;;;;;;;;;;5093508;28;20471;-79
2023/11/22 12:45:46;;;;;;;6.37;3.77;;;;;;;;;;5092879;28;20509;-78
2023/11/22 12:48:24;;;;;;;9.27;4.40;;;;;;;;;;5097876;28;20463;-78
2023/11/22 12:50:53;;;;;;;12.93;4.90;;;;;;;;;;5100074;28;20564;-77
2023/11/22 12:53:22;;;;;;;11.07;5.50;;;;;;;;;;5101679;28;20756;-79
2023/11/22 12:55:51;;;;;;;5.60;3.77;;;;;;;;;;5094572;28;20460;-78
2023/11/22 12:58:19;;;;;;;6.13;4.00;;;;;;;;;;5080636;28;20432;-78
2023/11/22 13:00:49;;;;;;;6.13;3.73;;;;;;;;;;5080725;28;20788;-80
2023/11/22 13:03:16;;;;;;;7.03;3.30;;;;;;;;;;5083717;28;20472;-78
2023/11/22 13:05:45;;;;;;;5.40;3.70;;;;;;;;;;5086170;28;20531;-79
2023/11/22 13:08:14;;;;;;;5.87;3.30;;;;;;;;;;5085860;28;20508;-79
2023/11/22 13:10:42;;;;;;;28.67;16.73;;;;;;;;;;5085284;28;20456;-79
2023/11/22 13:13:11;;;;;;;5.83;3.50;;;;;;;;;;5086825;28;20482;-79
2023/11/22 13:15:40;;;;;;;5.07;3.53;;;;;;;;;;5086977;28;20575;-78
2023/11/22 13:18:09;;;;;;;13.20;5.67;;;;;;;;;;5084485;28;20480;-78
2023/11/22 13:20:38;;;;;;;3.50;2.23;;;;;;;;;;5091673;28;20506;-79
2023/11/22 13:23:07;;;;;;;8.17;3.60;;;;;;;;;;5083000;28;21158;-78
2023/11/22 13:25:34;;;;;;;4.40;2.70;;;;;;;;;;5082742;28;20452;-77
2023/11/22 13:28:02;;;;;;;9.03;3.70;;;;;;;;;;5080632;28;20517;-78
2023/11/22 13:30:32;;;;;;;6.03;3.30;;;;;;;;;;5081330;28;20517;-78
2023/11/22 13:33:00;;;;;;;8.17;5.30;;;;;;;;;;5082187;28;20472;-78
2023/11/22 13:35:30;;;;;;;5.90;2.83;;;;;;;;;;5081639;28;20847;-78
2023/11/22 13:37:58;;;;;;;5.17;2.70;;;;;;;;;;5080006;28;20453;-80
2023/11/22 13:40:29;;;;;;;5.57;2.87;;;;;;;;;;5081318;28;20488;-79
2023/11/22 13:42:57;;;;;;;8.70;3.80;;;;;;;;;;5080185;28;21042;-79
2023/11/22 13:45:25;;;;;;;5.73;3.50;;;;;;;;;;5081211;28;20527;-78
2023/11/22 13:47:57;;;;;;;7.77;4.30;;;;;;;;;;5099556;28;20447;-79
2023/11/22 13:50:26;;;;;;;7.87;4.40;;;;;;;;;;5099826;28;20519;-78
2023/11/22 13:52:56;;;;;;;5.10;2.73;;;;;;;;;;5099675;28;20854;-79
2023/11/22 13:55:24;;;;;;;4.30;2.60;;;;;;;;;;5101225;28;20812;-78
2023/11/22 13:57:52;;;;;;;5.90;2.87;;;;;;;;;;5106131;28;20432;-79
2023/11/22 14:00:22;;;;;;;6.10;2.20;;;;;;;;;;5101202;28;20495;-79
2023/11/22 14:02:56;;;;;;;6.00;3.00;;;;;;;;;;5102143;28;20915;-79
2023/11/22 14:05:27;;;;;;;3.57;2.00;;;;;;;;;;5101767;28;20455;-79
2023/11/22 14:07:58;;;;;;;7.70;2.50;;;;;;;;;;5102541;28;20551;-78
2023/11/22 14:10:26;;;;;;;4.03;2.43;;;;;;;;;;5100179;28;20448;-79
2023/11/22 14:12:54;;;;;;;6.73;2.70;;;;;;;;;;5099844;28;20819;-79
2023/11/22 14:15:21;;;;;;;5.40;3.43;;;;;;;;;;5101570;28;20455;-78
2023/11/22 14:17:51;;;;;;;8.10;3.30;;;;;;;;;;5098859;28;20467;-77
2023/11/22 14:20:20;;;;;;;6.87;3.97;;;;;;;;;;5096203;28;20440;-78
2023/11/22 14:22:49;;;;;;;6.67;2.63;;;;;;;;;;5101459;28;20514;-80
2023/11/22 14:25:22;;;;;;;10.00;3.50;;;;;;;;;;5100137;28;20874;-79
2023/11/22 14:27:59;;;;;;;7.43;3.37;;;;;;;;;;5111274;28;20448;-79
2023/11/22 14:30:29;;;;;;;7.90;2.97;;;;;;;;;;5102011;28;21023;-79
2023/11/22 14:32:58;;;;;;;4.87;2.43;;;;;;;;;;5142265;27;20481;-78
2023/11/22 14:35:25;;;;;;;7.03;3.90;;;;;;;;;;5141083;27;20457;-79
2023/11/22 14:37:53;;;;;;;8.07;4.33;;;;;;;;;;5141599;27;20458;-79
2023/11/22 14:40:24;;;;;;;5.27;4.00;;;;;;;;;;5116568;27;20477;-78
2023/11/22 14:42:56;;;;;;;7.37;3.20;;;;;;;;;;5126772;27;20462;-80
2023/11/22 14:45:28;;;;;;;4.90;2.73;;;;;;;;;;5103035;28;20420;-78
2023/11/22 14:48:01;;;;;;;6.60;2.23;;;;;;;;;;5101246;28;20855;-79
2023/11/22 14:50:31;;;;;;;4.33;2.57;;;;;;;;;;5105939;28;20447;-77
2023/11/22 14:52:58;;;;;;;11.10;5.30;;;;;;;;;;5114574;28;20466;-78
2023/11/22 14:55:30;;;;;;;3.80;2.40;;;;;;;;;;5118699;27;20490;-78
2023/11/22 14:57:59;;;;;;;5.73;2.10;;;;;;;;;;5107150;28;20475;-79
2023/11/22 15:00:30;;;;;;;5.60;2.70;;;;;;;;;;5124044;27;20447;-79
2023/11/22 15:03:02;;;;;;;5.80;2.60;;;;;;;;;;5115722;28;20496;-80
2023/11/22 15:05:33;;;;;;;15.60;7.70;;;;;;;;;;5111340;28;20469;-78